Time;durP1;ratioP1;P1;durP2;ratioP2;P2;SDS_P1;SDS_P2;PMS_P1;PMS_P2;Temp;Humidity;BMP_temperature;BMP_pressure;BME280_temperature;BME280_humidity;BME280_pressure;Samples;Min_cycle;Max_cycle;Signal;HPM_P1;HPM_P2
2022/07/09 00:00:30;;;;;;;4.30;2.90;;;;;;;16.67;100.00;100047.69;1715959;83;21098;-71
2022/07/09 00:02:57;;;;;;;4.75;2.83;;;;;;;16.69;100.00;100049.78;1716683;83;21063;-73
2022/07/09 00:05:23;;;;;;;4.75;3.08;;;;;;;16.69;100.00;100047.13;1716143;83;21189;-71
2022/07/09 00:07:50;;;;;;;5.85;2.90;;;;;;;16.69;100.00;100045.79;1716530;83;21094;-70
2022/07/09 00:10:16;;;;;;;3.05;2.70;;;;;;;16.71;100.00;100038.09;1716345;82;21066;-72
2022/07/09 00:12:42;;;;;;;5.50;2.70;;;;;;;16.71;100.00;100035.91;1716402;83;21094;-71
2022/07/09 00:15:10;;;;;;;9.33;3.35;;;;;;;16.70;100.00;100028.42;1715990;83;21075;-71
2022/07/09 00:17:40;;;;;;;4.80;2.85;;;;;;;16.71;100.00;100025.28;1716155;82;21148;-71
2022/07/09 00:20:09;;;;;;;5.60;3.10;;;;;;;16.70;100.00;100027.55;1715973;83;21058;-71
2022/07/09 00:22:35;;;;;;;3.30;2.98;;;;;;;16.69;100.00;100030.69;1716064;82;21086;-71
2022/07/09 00:25:02;;;;;;;7.08;3.02;;;;;;;16.68;100.00;100024.13;1715986;83;21062;-72
2022/07/09 00:27:29;;;;;;;4.53;3.17;;;;;;;16.68;100.00;100018.80;1715926;83;21059;-71
2022/07/09 00:29:55;;;;;;;6.58;3.40;;;;;;;16.68;100.00;100013.48;1715824;83;21119;-71
2022/07/09 00:32:21;;;;;;;4.30;3.12;;;;;;;16.67;100.00;100003.81;1715881;83;21067;-70
2022/07/09 00:34:48;;;;;;;6.00;3.40;;;;;;;16.68;100.00;100002.85;1716240;82;21049;-71
2022/07/09 00:37:16;;;;;;;5.47;2.92;;;;;;;16.65;100.00;99999.07;1716047;83;21508;-71
2022/07/09 00:39:43;;;;;;;6.15;3.17;;;;;;;16.66;100.00;100004.78;1715716;82;21568;-72
2022/07/09 00:42:10;;;;;;;8.03;3.27;;;;;;;16.64;100.00;99998.23;1716020;83;21122;-72
2022/07/09 00:44:37;;;;;;;5.12;3.22;;;;;;;16.63;100.00;100000.97;1716227;83;21043;-72
2022/07/09 00:47:06;;;;;;;8.90;3.45;;;;;;;16.61;100.00;100001.09;1716017;83;21045;-69
2022/07/09 00:49:39;;;;;;;4.65;3.20;;;;;;;16.62;100.00;100000.61;1715841;83;21387;-70
2022/07/09 00:52:07;;;;;;;7.37;3.40;;;;;;;16.61;100.00;100006.41;1715949;83;21063;-72
2022/07/09 00:54:34;;;;;;;7.67;3.40;;;;;;;16.60;100.00;100013.14;1699669;83;21255;-69
2022/07/09 00:57:01;;;;;;;6.03;3.05;;;;;;;16.57;100.00;100012.38;1715896;82;21039;-70
2022/07/09 00:59:28;;;;;;;5.10;2.92;;;;;;;16.56;100.00;100005.38;1715889;83;21071;-71
2022/07/09 01:01:54;;;;;;;4.83;3.25;;;;;;;16.56;100.00;100000.06;1715851;82;21093;-71
2022/07/09 01:04:21;;;;;;;5.55;3.52;;;;;;;16.57;100.00;100003.56;1715932;83;21408;-71
2022/07/09 01:06:47;;;;;;;4.15;3.50;;;;;;;16.57;100.00;100001.75;1715949;83;21149;-70
2022/07/09 01:09:14;;;;;;;5.70;3.50;;;;;;;16.58;100.00;100004.77;1715928;82;21016;-71
2022/07/09 01:11:42;;;;;;;5.47;3.35;;;;;;;16.59;100.00;100005.66;1716012;83;21059;-71
2022/07/09 01:14:09;;;;;;;4.85;3.08;;;;;;;16.61;100.00;100018.38;1716385;83;21133;-69
2022/07/09 01:16:39;;;;;;;5.65;3.25;;;;;;;16.63;100.00;100011.61;1716002;83;21048;-71
2022/07/09 01:19:08;;;;;;;6.15;3.40;;;;;;;16.65;100.00;100009.70;1716223;83;21798;-70
2022/07/09 01:21:35;;;;;;;5.10;3.20;;;;;;;16.68;100.00;100013.48;1715938;83;20996;-71
2022/07/09 01:24:02;;;;;;;4.20;3.17;;;;;;;16.69;100.00;100005.91;1716127;83;21043;-70
2022/07/09 01:26:30;;;;;;;4.95;3.10;;;;;;;16.71;100.00;100000.86;1715927;82;21640;-71
2022/07/09 01:28:56;;;;;;;3.95;3.20;;;;;;;16.74;100.00;99999.81;1716047;83;21099;-71
2022/07/09 01:31:23;;;;;;;7.87;3.17;;;;;;;16.76;100.00;100004.55;1715988;82;21141;-71
2022/07/09 01:33:49;;;;;;;3.58;2.95;;;;;;;16.79;100.00;100008.37;1716022;83;21282;-70
2022/07/09 01:36:16;;;;;;;4.33;3.30;;;;;;;16.81;100.00;100013.11;1715975;83;21036;-68
2022/07/09 01:38:43;;;;;;;6.58;3.20;;;;;;;16.83;100.00;100009.87;1716031;83;21063;-70
2022/07/09 01:41:10;;;;;;;4.87;2.90;;;;;;;16.85;100.00;100001.81;1716394;82;21111;-69
2022/07/09 01:43:36;;;;;;;6.15;2.98;;;;;;;16.87;100.00;99995.44;1716074;83;21260;-70
2022/07/09 01:46:03;;;;;;;6.72;2.95;;;;;;;16.88;100.00;99988.30;1719019;83;21034;-71
2022/07/09 01:48:32;;;;;;;4.20;2.92;;;;;;;16.89;100.00;99995.34;1720738;83;21144;-70
2022/07/09 01:50:58;;;;;;;6.05;3.00;;;;;;;16.90;100.00;99995.23;1720885;83;21545;-70
2022/07/09 01:53:26;;;;;;;4.92;2.90;;;;;;;16.91;100.00;99988.97;1720684;83;21063;-70
2022/07/09 01:55:53;;;;;;;3.62;3.02;;;;;;;16.92;100.00;99984.02;1720255;83;21365;-71
2022/07/09 01:58:19;;;;;;;5.72;3.20;;;;;;;16.94;100.00;99982.59;1701266;83;21649;-70
2022/07/09 02:00:48;;;;;;;9.48;3.15;;;;;;;16.97;100.00;99979.23;1702478;84;21070;-71
2022/07/09 02:03:15;;;;;;;4.75;2.95;;;;;;;16.97;99.23;99975.25;1702499;84;21077;-70
2022/07/09 02:05:42;;;;;;;5.35;3.17;;;;;;;16.99;99.30;99974.67;1702788;84;21095;-70
2022/07/09 02:08:09;;;;;;;6.00;2.92;;;;;;;16.99;98.58;99978.66;1702824;84;22197;-70
2022/07/09 02:10:36;;;;;;;3.65;2.98;;;;;;;17.01;98.10;99985.22;1702767;84;21097;-70
2022/07/09 02:13:02;;;;;;;7.28;3.25;;;;;;;17.01;98.23;99985.70;1702961;84;21124;-70
2022/07/09 02:15:29;;;;;;;6.58;3.67;;;;;;;16.98;97.65;99992.94;1702651;84;21066;-70
2022/07/09 02:17:55;;;;;;;4.78;2.90;;;;;;;17.01;97.97;99993.69;1702938;84;21117;-70
2022/07/09 02:20:22;;;;;;;6.90;3.20;;;;;;;17.01;98.31;99997.67;1702648;84;21306;-71
2022/07/09 02:22:49;;;;;;;5.60;3.00;;;;;;;17.01;97.86;100001.67;1702634;84;21120;-69
2022/07/09 02:25:16;;;;;;;4.62;2.72;;;;;;;16.99;98.02;99997.28;1702917;84;21042;-70
2022/07/09 02:27:42;;;;;;;3.25;2.95;;;;;;;16.99;97.49;100005.27;1703114;84;21058;-70
2022/07/09 02:30:10;;;;;;;4.83;2.60;;;;;;;17.02;97.56;100014.00;1702774;84;21069;-70
2022/07/09 02:32:38;;;;;;;3.20;2.85;;;;;;;17.03;98.58;100026.37;1703259;84;21096;-69
2022/07/09 02:35:07;;;;;;;6.65;3.27;;;;;;;17.06;97.78;100032.80;1702761;84;21051;-70
2022/07/09 02:37:34;;;;;;;3.85;2.75;;;;;;;17.08;98.34;100041.55;1703069;84;21101;-70
2022/07/09 02:40:00;;;;;;;7.12;3.17;;;;;;;17.10;98.11;100051.61;1702836;84;21613;-71
2022/07/09 02:42:28;;;;;;;2.87;2.58;;;;;;;17.12;97.60;100058.54;1702896;84;21584;-71
2022/07/09 02:44:55;;;;;;;4.35;2.80;;;;;;;17.14;98.45;100075.27;1703042;84;22216;-70
2022/07/09 02:47:22;;;;;;;4.60;2.95;;;;;;;17.14;97.09;100095.70;1702632;84;21558;-71
2022/07/09 02:49:48;;;;;;;4.28;2.80;;;;;;;17.13;96.99;100102.80;1702876;84;21054;-71
2022/07/09 02:52:15;;;;;;;6.53;2.87;;;;;;;17.12;97.14;100107.77;1702704;84;21058;-72
2022/07/09 02:54:41;;;;;;;6.25;2.80;;;;;;;17.11;96.73;100107.37;1686802;84;21083;-71
2022/07/09 02:57:08;;;;;;;6.30;3.00;;;;;;;17.15;97.77;100108.03;1676402;85;21527;-70
2022/07/09 02:59:35;;;;;;;7.75;2.77;;;;;;;17.15;97.14;100110.70;1656784;85;21040;-71
2022/07/09 03:02:02;;;;;;;6.58;3.58;;;;;;;17.16;97.34;100125.70;1656686;86;21651;-71
2022/07/09 03:04:29;;;;;;;5.65;3.10;;;;;;;17.17;97.43;100144.72;1656691;86;21099;-69
2022/07/09 03:06:55;;;;;;;6.92;3.30;;;;;;;17.17;97.38;100154.03;1657030;86;21095;-69
2022/07/09 03:09:22;;;;;;;6.05;3.00;;;;;;;17.16;97.21;100152.31;1656543;86;21264;-70
2022/07/09 03:11:49;;;;;;;7.08;3.15;;;;;;;17.17;97.42;100147.38;1657024;86;21076;-70
2022/07/09 03:14:16;;;;;;;5.20;3.12;;;;;;;17.18;97.55;100141.09;1656886;86;21063;-68
2022/07/09 03:16:42;;;;;;;9.68;3.37;;;;;;;17.19;98.81;100138.83;1656639;86;21063;-71
2022/07/09 03:19:09;;;;;;;5.78;3.67;;;;;;;17.21;97.81;100150.23;1656719;86;21087;-70
2022/07/09 03:21:35;;;;;;;6.65;3.20;;;;;;;17.20;98.38;100157.81;1658007;85;21122;-70
2022/07/09 03:24:02;;;;;;;7.05;3.10;;;;;;;17.18;98.46;100163.70;1672282;85;21085;-70
2022/07/09 03:26:29;;;;;;;4.35;3.22;;;;;;;17.16;98.04;100162.95;1720513;82;21053;-69
2022/07/09 03:28:55;;;;;;;5.08;3.40;;;;;;;17.14;98.84;100162.22;1720957;83;21050;-69
2022/07/09 03:31:22;;;;;;;9.00;3.50;;;;;;;17.13;98.24;100161.83;1720376;83;21109;-69
2022/07/09 03:33:53;;;;;;;6.33;3.40;;;;;;;17.11;98.31;100165.06;1720590;83;21300;-72
2022/07/09 03:36:17;;;;;;;5.22;3.55;;;;;;;17.10;99.02;100163.36;1685516;84;21584;-71
2022/07/09 03:38:44;;;;;;;3.70;3.05;;;;;;;17.10;99.04;100164.20;1685914;85;21049;-70
2022/07/09 03:41:10;;;;;;;6.00;3.65;;;;;;;17.10;99.89;100156.71;1685737;85;21061;-69
2022/07/09 03:43:37;;;;;;;5.67;3.67;;;;;;;17.09;99.28;100162.52;1720917;82;21010;-69
2022/07/09 03:46:04;;;;;;;9.18;3.35;;;;;;;17.10;99.46;100162.03;1720443;83;21863;-70
2022/07/09 03:48:31;;;;;;;3.50;3.20;;;;;;;17.09;99.34;100165.17;1685931;85;21140;-70
2022/07/09 03:50:57;;;;;;;4.85;3.50;;;;;;;17.10;99.36;100168.69;1720728;83;20998;-70
2022/07/09 03:53:25;;;;;;;7.60;3.58;;;;;;;17.11;100.00;100173.04;1683216;85;21048;-69
2022/07/09 03:55:51;;;;;;;4.97;3.00;;;;;;;17.10;99.78;100174.00;1678077;85;21088;-69
2022/07/09 03:58:18;;;;;;;8.80;3.55;;;;;;;17.13;99.14;100173.80;1673559;84;21934;-70
2022/07/09 04:00:44;;;;;;;5.75;3.52;;;;;;;17.16;100.00;100161.63;1686802;83;21058;-70
2022/07/09 04:03:11;;;;;;;7.62;3.58;;;;;;;17.17;98.92;100163.34;1705476;84;21537;-69
2022/07/09 04:05:38;;;;;;;5.50;3.27;;;;;;;17.19;99.98;100162.78;1705528;84;21022;-70
2022/07/09 04:08:05;;;;;;;6.50;3.87;;;;;;;17.22;100.00;100166.56;1727630;82;21014;-70
2022/07/09 04:10:33;;;;;;;10.78;3.70;;;;;;;17.22;100.00;100167.89;1742671;80;21240;-70
2022/07/09 04:13:00;;;;;;;6.08;3.83;;;;;;;17.22;100.00;100170.55;1742456;82;21196;-70
2022/07/09 04:15:26;;;;;;;5.10;3.98;;;;;;;17.23;100.00;100176.27;1742655;82;21557;-71
2022/07/09 04:17:52;;;;;;;9.38;4.30;;;;;;;17.22;100.00;100173.22;1742722;82;21033;-72
2022/07/09 04:20:19;;;;;;;4.87;3.80;;;;;;;17.22;100.00;100171.88;1742587;82;20998;-72
2022/07/09 04:22:45;;;;;;;6.83;3.70;;;;;;;17.20;100.00;100169.31;1742559;82;21199;-70
2022/07/09 04:25:12;;;;;;;5.87;3.72;;;;;;;17.21;100.00;100171.52;1742749;82;21021;-70
2022/07/09 04:27:39;;;;;;;6.83;3.75;;;;;;;17.17;100.00;100170.00;1742426;82;21684;-70
2022/07/09 04:30:09;;;;;;;4.67;3.75;;;;;;;17.11;100.00;100173.04;1742912;82;21589;-70
2022/07/09 04:32:37;;;;;;;7.53;3.92;;;;;;;17.06;100.00;100173.81;1742472;82;21026;-69
2022/07/09 04:35:05;;;;;;;8.10;4.10;;;;;;;17.02;100.00;100173.63;1742776;82;21910;-70
2022/07/09 04:37:32;;;;;;;5.30;3.55;;;;;;;16.94;100.00;100166.98;1742557;82;21537;-70
2022/07/09 04:39:58;;;;;;;9.60;4.92;;;;;;;16.88;100.00;100160.70;1742686;82;21484;-71
2022/07/09 04:42:25;;;;;;;7.92;4.17;;;;;;;16.85;100.00;100161.39;1742406;82;21037;-70
2022/07/09 04:44:51;;;;;;;10.35;4.28;;;;;;;16.81;100.00;100150.08;1742984;82;21041;-70
2022/07/09 04:47:18;;;;;;;6.47;4.22;;;;;;;16.72;100.00;100145.30;1742575;82;21264;-70
2022/07/09 04:49:45;;;;;;;6.55;4.37;;;;;;;16.68;100.00;100138.45;1742469;82;21018;-71
2022/07/09 04:52:16;;;;;;;7.28;5.30;;;;;;;16.66;100.00;100136.40;1742890;82;21547;-70
2022/07/09 04:54:40;;;;;;;8.00;5.17;;;;;;;16.65;100.00;100136.00;1715848;82;21051;-70
2022/07/09 04:57:07;;;;;;;12.05;6.10;;;;;;;16.65;100.00;100136.00;1678462;85;21096;-71
2022/07/09 04:59:33;;;;;;;8.93;5.20;;;;;;;16.64;100.00;100130.31;1712866;83;21314;-71
2022/07/09 05:02:00;;;;;;;5.50;3.80;;;;;;;16.64;100.00;100123.67;1712706;83;21235;-71
2022/07/09 05:04:27;;;;;;;12.47;5.67;;;;;;;16.62;100.00;100122.42;1678094;85;21499;-72
2022/07/09 05:06:53;;;;;;;9.43;5.65;;;;;;;16.62;100.00;100122.91;1712707;83;21835;-69
2022/07/09 05:09:21;;;;;;;6.17;4.37;;;;;;;16.61;100.00;100119.85;1712792;82;21004;-71
2022/07/09 05:11:47;;;;;;;10.18;5.92;;;;;;;16.60;100.00;100119.48;1712984;82;21178;-71
2022/07/09 05:14:14;;;;;;;8.68;4.55;;;;;;;16.58;100.00;100120.42;1678309;85;21100;-73
2022/07/09 05:16:44;;;;;;;11.22;6.08;;;;;;;16.56;100.00;100117.03;1712654;83;21091;-73
2022/07/09 05:19:09;;;;;;;8.08;5.70;;;;;;;16.55;100.00;100111.80;1735260;82;21086;-71
2022/07/09 05:21:36;;;;;;;11.73;5.78;;;;;;;16.53;100.00;100107.89;1736713;82;21054;-72
2022/07/09 05:24:03;;;;;;;12.25;6.12;;;;;;;16.51;100.00;100103.14;1737090;82;21099;-72
2022/07/09 05:26:31;;;;;;;11.97;6.08;;;;;;;16.50;100.00;100100.12;1728841;81;21055;-71
2022/07/09 05:28:57;;;;;;;9.90;6.53;;;;;;;16.48;100.00;100096.70;1738393;82;21002;-70
2022/07/09 05:31:24;;;;;;;8.73;6.28;;;;;;;16.45;100.00;100090.70;1721973;82;21481;-70
2022/07/09 05:33:51;;;;;;;10.82;5.75;;;;;;;16.40;100.00;100083.02;1742822;82;21085;-72
2022/07/09 05:36:18;;;;;;;8.05;6.35;;;;;;;16.36;100.00;100081.52;1706920;84;21987;-71
2022/07/09 05:38:47;;;;;;;18.60;6.40;;;;;;;16.33;100.00;100073.27;1742701;82;21014;-71
2022/07/09 05:41:15;;;;;;;9.38;5.50;;;;;;;16.32;100.00;100068.04;1743022;82;21014;-72
2022/07/09 05:43:42;;;;;;;11.08;6.70;;;;;;;16.31;100.00;100063.66;1722097;82;21597;-72
2022/07/09 05:46:09;;;;;;;8.45;5.08;;;;;;;16.28;100.00;100050.56;1722274;82;21690;-71
2022/07/09 05:48:35;;;;;;;8.83;5.80;;;;;;;16.27;100.00;100034.26;1742786;82;21812;-71
2022/07/09 05:51:04;;;;;;;8.50;5.35;;;;;;;16.30;100.00;100020.77;1721849;81;21088;-72
2022/07/09 05:53:31;;;;;;;7.25;5.08;;;;;;;16.33;100.00;100011.27;1730765;82;22207;-70
2022/07/09 05:55:57;;;;;;;10.85;5.45;;;;;;;16.36;100.00;99997.33;1701578;84;21058;-71
2022/07/09 05:58:24;;;;;;;10.48;5.10;;;;;;;16.40;100.00;99983.35;1745688;82;21069;-72
2022/07/09 06:00:50;;;;;;;6.55;4.72;;;;;;;16.40;100.00;99970.06;1729509;82;21138;-72
2022/07/09 06:03:17;;;;;;;9.48;5.22;;;;;;;16.45;100.00;99970.65;1750877;82;21017;-71
2022/07/09 06:05:44;;;;;;;8.68;4.80;;;;;;;16.48;100.00;99966.45;1750995;82;21084;-71
2022/07/09 06:08:12;;;;;;;6.15;5.00;;;;;;;16.50;100.00;99965.04;1750643;82;21066;-72
2022/07/09 06:10:38;;;;;;;7.55;5.30;;;;;;;16.53;100.00;99956.37;1750643;80;21023;-71
2022/07/09 06:13:05;;;;;;;9.38;5.25;;;;;;;16.53;100.00;99963.02;1750885;82;21710;-72
2022/07/09 06:15:31;;;;;;;10.10;5.22;;;;;;;16.52;100.00;99956.01;1733684;82;21518;-72
2022/07/09 06:17:58;;;;;;;7.72;5.70;;;;;;;16.56;100.00;99964.63;1742980;82;21526;-72
2022/07/09 06:20:25;;;;;;;8.98;5.33;;;;;;;16.55;100.00;99962.45;1750768;82;21025;-71
2022/07/09 06:22:51;;;;;;;9.08;5.47;;;;;;;16.55;100.00;99971.75;1750635;82;21143;-71
2022/07/09 06:25:18;;;;;;;4.87;4.28;;;;;;;16.54;100.00;99964.73;1721770;80;21102;-72
2022/07/09 06:27:47;;;;;;;6.60;4.80;;;;;;;16.55;100.00;99971.75;1727236;82;21065;-71
2022/07/09 06:30:13;;;;;;;5.55;4.60;;;;;;;16.53;100.00;99970.99;1747901;82;21395;-71
2022/07/09 06:32:40;;;;;;;6.50;4.78;;;;;;;16.56;100.00;99976.13;1750710;82;21060;-71
2022/07/09 06:35:07;;;;;;;9.93;5.03;;;;;;;16.58;100.00;99975.53;1730147;82;21052;-71
2022/07/09 06:37:34;;;;;;;5.33;4.58;;;;;;;16.62;100.00;99976.68;1751289;82;21121;-71
2022/07/09 06:40:01;;;;;;;6.42;5.08;;;;;;;16.62;100.00;99968.70;1750923;82;21033;-71
2022/07/09 06:42:27;;;;;;;5.33;3.90;;;;;;;16.69;100.00;99962.03;1751019;82;21069;-70
2022/07/09 06:44:58;;;;;;;;;;;;;;;16.73;100.00;99952.42;1753841;82;21080;-72
2022/07/09 06:47:25;;;;;;;6.35;4.30;;;;;;;16.79;100.00;99949.86;1750873;82;20552;-72
2022/07/09 06:49:51;;;;;;;7.20;4.40;;;;;;;16.84;100.00;99946.45;1750871;82;21509;-72
2022/07/09 06:52:20;;;;;;;5.47;3.67;;;;;;;16.88;100.00;99959.89;1750409;82;21069;-71
2022/07/09 06:54:47;;;;;;;9.25;3.85;;;;;;;16.87;100.00;99963.52;1737622;82;21842;-71
2022/07/09 06:57:14;;;;;;;7.40;4.40;;;;;;;16.85;100.00;99965.42;1750749;82;21541;-72
2022/07/09 06:59:42;;;;;;;5.83;4.42;;;;;;;16.89;100.00;99969.59;1744197;82;21064;-71
2022/07/09 07:02:08;;;;;;;5.70;3.90;;;;;;;16.93;100.00;99960.47;1742696;82;21549;-71
2022/07/09 07:04:35;;;;;;;5.28;4.30;;;;;;;16.94;100.00;99966.63;1742592;81;21506;-72
2022/07/09 07:07:02;;;;;;;6.35;3.60;;;;;;;16.99;100.00;99972.02;1742716;82;21514;-71
2022/07/09 07:09:29;;;;;;;7.85;4.22;;;;;;;17.02;100.00;99967.45;1743178;80;21062;-71
2022/07/09 07:11:56;;;;;;;8.45;4.72;;;;;;;16.98;100.00;99974.31;1741729;82;21077;-73
2022/07/09 07:14:22;;;;;;;7.35;4.67;;;;;;;16.92;100.00;99966.72;1741673;82;21193;-72
2022/07/09 07:16:50;;;;;;;5.58;4.10;;;;;;;16.89;100.00;99969.59;1740005;82;20991;-73
2022/07/09 07:19:17;;;;;;;7.20;4.53;;;;;;;16.89;100.00;99969.59;1739858;82;21092;-73
2022/07/09 07:21:44;;;;;;;6.22;3.87;;;;;;;16.88;100.00;99973.19;1742464;82;21268;-71
2022/07/09 07:24:10;;;;;;;10.08;4.33;;;;;;;16.89;100.00;99972.26;1741539;82;21104;-71
2022/07/09 07:26:36;;;;;;;11.73;4.70;;;;;;;16.91;100.00;99973.02;1743100;82;21211;-72
2022/07/09 07:29:06;;;;;;;14.87;5.25;;;;;;;16.96;100.00;99976.22;1742544;82;21018;-71
2022/07/09 07:31:36;;;;;;;6.75;4.22;;;;;;;16.99;100.00;99973.34;1742729;82;21080;-70
2022/07/09 07:34:03;;;;;;;8.48;5.00;;;;;;;17.01;100.00;99975.91;1742693;82;20994;-71
2022/07/09 07:36:30;;;;;;;13.40;4.95;;;;;;;16.98;100.00;99976.13;1742819;82;21076;-72
2022/07/09 07:38:58;;;;;;;5.65;4.67;;;;;;;17.02;100.00;99972.28;1742585;82;21045;-72
2022/07/09 07:41:25;;;;;;;9.75;4.53;;;;;;;17.03;100.00;99970.50;1742575;82;21069;-73
2022/07/09 07:43:52;;;;;;;16.00;5.03;;;;;;;17.05;100.00;99971.25;1742656;81;21072;-71
2022/07/09 07:46:18;;;;;;;7.20;4.55;;;;;;;17.03;100.00;99962.52;1739774;81;21050;-71
2022/07/09 07:48:44;;;;;;;5.45;4.28;;;;;;;16.99;100.00;99949.40;1730469;82;21053;-71
2022/07/09 07:51:11;;;;;;;9.68;4.75;;;;;;;17.02;100.00;99939.52;1721719;81;21225;-72
2022/07/09 07:53:38;;;;;;;7.55;4.17;;;;;;;17.06;100.00;99927.23;1737300;81;21517;-71
2022/07/09 07:56:07;;;;;;;7.33;4.37;;;;;;;17.05;100.00;99919.38;1725929;81;22147;-72
2022/07/09 07:58:35;;;;;;;7.90;4.17;;;;;;;17.05;100.00;99922.03;1739764;81;21061;-72
2022/07/09 08:01:02;;;;;;;6.08;4.08;;;;;;;17.03;100.00;99929.27;1737438;82;21013;-71
2022/07/09 08:03:29;;;;;;;5.65;4.25;;;;;;;17.05;100.00;99923.37;1736422;82;22162;-70
2022/07/09 08:05:56;;;;;;;4.95;3.70;;;;;;;17.05;100.00;99924.70;1736591;82;21090;-70
2022/07/09 08:08:22;;;;;;;8.48;3.80;;;;;;;17.04;100.00;99928.30;1736504;82;21090;-72
2022/07/09 08:10:49;;;;;;;14.98;4.33;;;;;;;17.08;100.00;99924.48;1736601;82;21022;-72
2022/07/09 08:13:17;;;;;;;8.43;3.98;;;;;;;17.11;100.00;99925.59;1736435;82;21034;-71
2022/07/09 08:15:45;;;;;;;5.42;3.90;;;;;;;17.11;100.00;99928.25;1736718;82;21134;-71
2022/07/09 08:18:13;;;;;;;9.08;4.12;;;;;;;17.12;100.00;99920.66;1736543;82;21062;-73
2022/07/09 08:20:41;;;;;;;10.45;4.28;;;;;;;17.14;100.00;99917.42;1736515;82;21065;-71
2022/07/09 08:23:08;;;;;;;7.50;4.37;;;;;;;17.18;100.00;99918.89;1736611;82;21268;-72
2022/07/09 08:25:36;;;;;;;13.05;5.17;;;;;;;17.22;100.00;99915.08;1740485;82;21007;-71
2022/07/09 08:28:03;;;;;;;8.30;4.30;;;;;;;17.24;100.00;99906.52;1742469;82;21288;-70
2022/07/09 08:30:30;;;;;;;5.90;4.10;;;;;;;17.29;100.00;99908.38;1742666;82;21095;-72
2022/07/09 08:32:56;;;;;;;8.30;3.83;;;;;;;17.36;100.00;99909.66;1739455;82;21035;-71
2022/07/09 08:35:25;;;;;;;7.15;3.83;;;;;;;17.42;100.00;99899.57;1734531;81;21057;-71
2022/07/09 08:37:53;;;;;;;8.90;3.92;;;;;;;17.48;100.00;99897.80;1741484;82;21111;-72
2022/07/09 08:40:21;;;;;;;6.53;3.72;;;;;;;17.56;100.00;99896.30;1721626;82;21081;-72
2022/07/09 08:42:49;;;;;;;8.40;4.33;;;;;;;17.59;100.00;99900.08;1726971;82;21018;-71
2022/07/09 08:45:18;;;;;;;4.92;3.40;;;;;;;17.63;100.00;99899.39;1725987;82;21536;-71
2022/07/09 08:47:45;;;;;;;9.28;3.98;;;;;;;17.64;100.00;99905.08;1742637;82;21058;-70
2022/07/09 08:50:11;;;;;;;8.45;3.87;;;;;;;17.63;100.00;99899.39;1742494;82;21037;-71
2022/07/09 08:52:40;;;;;;;8.43;4.20;;;;;;;17.65;100.00;99912.13;1723678;81;21526;-71
2022/07/09 08:55:08;;;;;;;7.50;4.40;;;;;;;17.65;100.00;99900.14;1713224;82;21096;-72
2022/07/09 08:57:35;;;;;;;9.58;4.25;;;;;;;17.69;100.00;99906.09;1712920;83;21080;-71
2022/07/09 09:00:06;;;;;;;5.20;4.08;;;;;;;17.67;100.00;99910.21;1745040;82;21061;-72
2022/07/09 09:02:36;;;;;;;6.67;3.95;;;;;;;17.70;100.00;99912.65;1750010;82;21577;-71
2022/07/09 09:05:15;;;;;;;5.30;4.00;;;;;;;17.70;100.00;99909.98;1750698;82;21134;-71
2022/07/09 09:07:42;;;;;;;8.25;4.28;;;;;;;17.73;100.00;99920.90;1750561;82;21073;-71
2022/07/09 09:10:11;;;;;;;5.65;3.65;;;;;;;17.72;100.00;99925.37;1750752;80;21076;-72
2022/07/09 09:13:45;;;;;;;7.47;3.90;;;;;;;17.63;100.00;99931.35;1814597;79;23323;-71
2022/07/09 09:16:13;;;;;;;6.35;4.10;;;;;;;17.53;100.00;99926.27;1787434;80;21053;-72
2022/07/09 09:18:45;;;;;;;7.25;4.25;;;;;;;17.54;100.00;99918.67;1787516;80;21213;-71
2022/07/09 09:21:14;;;;;;;8.73;4.37;;;;;;;17.60;100.00;99911.60;1786459;80;21553;-73
2022/07/09 09:23:53;;;;;;;5.62;4.12;;;;;;;17.69;100.00;99896.31;1787583;80;21029;-70
2022/07/09 09:26:23;;;;;;;5.35;3.58;;;;;;;17.75;100.00;99894.53;1787406;80;21222;-71
2022/07/09 09:28:54;;;;;;;5.47;3.98;;;;;;;17.78;100.00;99894.33;1787248;80;21660;-72
2022/07/09 09:31:36;;;;;;;4.50;3.65;;;;;;;17.81;100.00;99896.80;1787948;80;21239;-70
2022/07/09 09:34:13;;;;;;;5.97;3.35;;;;;;;17.82;100.00;99894.49;1783107;80;21026;-71
2022/07/09 09:36:45;;;;;;;4.70;4.03;;;;;;;17.86;100.00;99894.30;1756444;81;21099;-72
2022/07/09 09:39:26;;;;;;;7.28;4.00;;;;;;;17.88;100.00;99892.38;1756138;81;21044;-72
2022/07/09 09:41:59;;;;;;;5.95;4.05;;;;;;;17.86;100.00;99888.97;1755933;81;21056;-72
2022/07/09 09:44:37;;;;;;;6.50;4.20;;;;;;;17.87;100.00;99884.00;1756050;81;21805;-69
2022/07/09 09:47:00;;;;;;;7.17;4.10;;;;;;;17.90;100.00;99878.44;1755315;81;21064;-70
2022/07/09 09:49:26;;;;;;;6.40;4.20;;;;;;;17.91;100.00;99866.35;1756222;81;21085;-71
2022/07/09 09:52:10;;;;;;;5.25;3.75;;;;;;;17.93;100.00;99856.93;1755984;81;21030;-72
2022/07/09 09:54:38;;;;;;;7.30;3.85;;;;;;;17.97;100.00;99835.77;1755455;81;21051;-71
2022/07/09 09:57:09;;;;;;;7.50;4.00;;;;;;;18.03;100.00;99842.81;1756400;81;21136;-71
2022/07/09 09:59:38;;;;;;;6.67;3.92;;;;;;;18.11;100.00;99834.28;1756895;81;21651;-71
2022/07/09 10:02:11;;;;;;;8.85;4.00;;;;;;;18.19;100.00;99823.89;1756354;81;21003;-71
2022/07/09 10:04:43;;;;;;;8.30;4.03;;;;;;;18.21;100.00;99822.45;1756679;81;21187;-72
2022/07/09 10:07:12;;;;;;;4.87;4.03;;;;;;;18.28;100.00;99821.53;1756440;81;21102;-72
2022/07/09 10:09:38;;;;;;;4.83;3.60;;;;;;;18.34;100.00;99829.08;1737561;81;21755;-71
2022/07/09 10:12:10;;;;;;;5.62;3.40;;;;;;;18.41;100.00;99830.33;1723230;82;21000;-71
2022/07/09 10:14:38;;;;;;;4.37;3.27;;;;;;;18.53;100.00;99832.06;1713567;83;21516;-71
2022/07/09 10:17:16;;;;;;;4.15;3.60;;;;;;;18.62;100.00;99832.70;1713463;82;21028;-71
2022/07/09 10:19:57;;;;;;;4.35;3.20;;;;;;;18.76;100.00;99848.16;1713602;82;21150;-72
2022/07/09 10:22:38;;;;;;;;;;;;;;;18.82;100.00;99853.07;1716417;83;21918;-71
2022/07/09 10:25:06;;;;;;;4.75;3.30;;;;;;;18.82;100.00;99851.73;1712896;82;26659;-71
2022/07/09 10:27:47;;;;;;;5.20;3.02;;;;;;;18.82;100.00;99845.06;1713337;82;21075;-72
2022/07/09 10:30:27;;;;;;;4.87;3.17;;;;;;;18.89;100.00;99846.30;1713295;82;21641;-72
2022/07/09 10:33:16;;;;;;;5.47;3.87;;;;;;;18.88;100.00;99836.58;1713358;82;21063;-72
2022/07/09 10:35:54;;;;;;;8.63;4.28;;;;;;;18.90;100.00;99847.98;1712971;82;21214;-71
2022/07/09 10:38:22;;;;;;;3.95;3.42;;;;;;;18.90;100.00;99844.47;1712971;83;21110;-71
2022/07/09 10:40:57;;;;;;;7.92;3.67;;;;;;;18.88;100.00;99850.41;1712995;82;21048;-71
2022/07/09 10:43:52;;;;;;;5.72;3.70;;;;;;;18.83;100.00;99850.27;1713328;82;21055;-70
2022/07/09 10:46:19;;;;;;;3.80;3.50;;;;;;;18.78;100.00;99859.59;1718981;82;21557;-71
2022/07/09 10:48:47;;;;;;;7.90;3.67;;;;;;;18.76;100.00;99857.49;1739835;82;21049;-71
2022/07/09 10:51:19;;;;;;;4.70;3.25;;;;;;;18.78;100.00;99871.60;1741258;82;21049;-72
2022/07/09 10:53:46;;;;;;;8.20;3.95;;;;;;;18.80;100.00;99873.67;1737436;82;21062;-71
2022/07/09 10:56:20;;;;;;;3.47;3.17;;;;;;;18.84;100.00;99869.78;1732153;82;21107;-72
2022/07/09 10:58:47;;;;;;;8.50;4.20;;;;;;;18.88;100.00;99866.41;1733039;82;21042;-71
2022/07/09 11:01:21;;;;;;;5.75;3.85;;;;;;;18.90;100.00;99866.66;1732889;82;22217;-72
2022/07/09 11:03:50;;;;;;;7.60;3.83;;;;;;;18.88;100.00;99875.27;1733143;82;21003;-71
2022/07/09 11:06:17;;;;;;;6.90;4.12;;;;;;;18.82;100.00;99877.08;1732845;82;21565;-70
2022/07/09 11:08:44;;;;;;;4.92;3.92;;;;;;;18.81;100.00;99876.70;1732856;82;21069;-71
2022/07/09 11:11:11;;;;;;;7.47;4.30;;;;;;;18.81;100.00;99875.36;1732832;82;21045;-70
2022/07/09 11:13:39;;;;;;;3.92;3.47;;;;;;;18.85;100.00;99880.84;1733305;82;21085;-71
2022/07/09 11:16:09;;;;;;;7.00;4.20;;;;;;;18.88;100.00;99879.27;1733324;82;21037;-70
2022/07/09 11:18:39;;;;;;;4.00;3.40;;;;;;;18.93;100.00;99878.42;1733379;82;21081;-72
2022/07/09 11:21:06;;;;;;;7.17;4.05;;;;;;;18.96;100.00;99879.55;1733443;82;21065;-72
2022/07/09 11:23:32;;;;;;;5.78;3.87;;;;;;;18.99;100.00;99873.97;1733439;82;21089;-71
2022/07/09 11:26:00;;;;;;;4.20;3.80;;;;;;;19.00;100.00;99870.34;1733439;82;21257;-71